Time;durP1;ratioP1;P1;durP2;ratioP2;P2;SDS_P1;SDS_P2;PMS_P1;PMS_P2;Temp;Humidity;BMP_temperature;BMP_pressure;BME280_temperature;BME280_humidity;BME280_pressure;Samples;Min_cycle;Max_cycle;Signal;HPM_P1;HPM_P2
2022/01/26 00:00:18;;;;;;;46.60;22.10;;;4.10;99.90;;;;;;5042580;28;20186;-51
2022/01/26 00:08:11;;;;;;;44.10;22.67;;;4.00;99.90;;;;;;5114966;28;20260;-51
2022/01/26 00:10:36;;;;;;;49.58;23.88;;;4.10;99.90;;;;;;5114896;28;20213;-50
2022/01/26 00:13:02;;;;;;;55.15;24.45;;;4.10;99.90;;;;;;5114658;28;20295;-52
2022/01/26 00:15:30;;;;;;;46.58;25.45;;;4.10;99.90;;;;;;5115084;28;20571;-50
2022/01/26 00:17:57;;;;;;;43.22;21.88;;;4.10;99.90;;;;;;5115133;28;20528;-50
2022/01/26 00:20:28;;;;;;;45.13;21.85;;;4.10;99.90;;;;;;5114945;28;20536;-51
2022/01/26 00:23:10;;;;;;;43.88;22.42;;;4.00;99.90;;;;;;5114759;28;20208;-48
2022/01/26 00:28:34;;;;;;;49.33;22.90;;;4.00;99.90;;;;;;5114607;28;20202;-48
2022/01/26 00:39:11;;;;;;;42.60;21.63;;;4.00;99.90;;;;;;5114367;28;20180;-49
2022/01/26 00:41:39;;;;;;;53.70;22.55;;;3.90;99.90;;;;;;5114498;28;20164;-48
2022/01/26 00:44:06;;;;;;;44.72;22.45;;;4.10;99.90;;;;;;5114429;28;20215;-48
2022/01/26 00:46:33;;;;;;;45.33;23.17;;;4.00;99.90;;;;;;5114120;28;20640;-50
2022/01/26 00:48:59;;;;;;;44.78;23.20;;;4.00;99.90;;;;;;5114366;28;20627;-45
2022/01/26 00:51:25;;;;;;;43.25;23.38;;;4.00;99.90;;;;;;5114114;28;20165;-48
2022/01/26 00:54:00;;;;;;;51.78;24.05;;;3.90;99.90;;;;;;5095843;28;20667;-48
2022/01/26 00:56:26;;;;;;;45.72;24.13;;;4.00;99.90;;;;;;5114278;28;20221;-46
2022/01/26 00:58:51;;;;;;;55.75;24.92;;;4.00;99.90;;;;;;5113939;28;20176;-45
2022/01/26 01:01:17;;;;;;;56.85;25.27;;;4.00;99.90;;;;;;5114102;28;20263;-46
2022/01/26 01:03:45;;;;;;;51.25;25.77;;;3.90;99.90;;;;;;5113754;28;20208;-47
2022/01/26 01:06:23;;;;;;;49.13;24.02;;;4.00;99.90;;;;;;5114018;28;20580;-50
2022/01/26 01:08:50;;;;;;;48.08;23.60;;;4.00;99.90;;;;;;5114001;28;20175;-46
2022/01/26 01:11:16;;;;;;;47.47;25.33;;;4.00;99.90;;;;;;5113758;28;20207;-46
2022/01/26 01:13:42;;;;;;;53.13;26.00;;;4.10;99.90;;;;;;5113933;28;20267;-54
2022/01/26 01:16:15;;;;;;;47.38;25.13;;;4.00;99.90;;;;;;5113882;28;20251;-48
2022/01/26 01:34:07;;;;;;;58.88;26.65;;;4.00;99.90;;;;;;5113411;28;20594;-50
2022/01/26 01:36:36;;;;;;;57.47;28.13;;;4.10;99.90;;;;;;5112407;28;20215;-49
2022/01/26 01:39:02;;;;;;;52.92;27.02;;;4.10;99.90;;;;;;5113369;28;20169;-49
2022/01/26 01:41:27;;;;;;;60.95;28.23;;;3.90;99.90;;;;;;5113371;28;20251;-47
2022/01/26 01:43:53;;;;;;;67.20;30.70;;;4.00;99.90;;;;;;5113082;28;20208;-52
2022/01/26 01:46:18;;;;;;;67.15;30.92;;;4.00;99.90;;;;;;5113008;28;20164;-51
2022/01/26 01:48:44;;;;;;;63.75;29.30;;;4.00;99.90;;;;;;5113002;28;20620;-50
2022/01/26 01:51:13;;;;;;;65.65;30.33;;;4.00;99.90;;;;;;5112984;28;20506;-55
2022/01/26 01:53:41;;;;;;;68.38;30.38;;;3.90;99.90;;;;;;5113132;28;20164;-52
2022/01/26 01:56:09;;;;;;;66.50;29.35;;;3.90;99.90;;;;;;5113077;28;20168;-50
2022/01/26 01:58:36;;;;;;;57.42;28.73;;;4.00;99.90;;;;;;5112776;28;20205;-52
2022/01/26 02:01:02;;;;;;;69.03;31.75;;;4.00;99.90;;;;;;5112723;28;20533;-51
2022/01/26 02:03:28;;;;;;;74.00;32.72;;;3.90;99.90;;;;;;5113235;28;20621;-54
2022/01/26 02:05:53;;;;;;;66.70;29.42;;;3.90;99.90;;;;;;5112731;28;20164;-52
2022/01/26 02:08:20;;;;;;;74.15;34.13;;;4.00;99.90;;;;;;5112641;28;20616;-53
2022/01/26 02:10:46;;;;;;;68.93;32.00;;;3.90;99.90;;;;;;5112684;28;20165;-53
2022/01/26 02:13:36;;;;;;;75.22;33.20;;;3.90;99.90;;;;;;5112541;28;20224;-52
2022/01/26 02:16:19;;;;;;;75.45;31.58;;;3.90;99.90;;;;;;5112508;28;20165;-51
2022/01/26 02:49:10;;;;;;;73.20;29.27;;;4.00;99.90;;;;;;5113006;28;20210;-52
2022/01/26 02:52:09;;;;;;;73.32;32.25;;;3.90;99.90;;;;;;5116485;28;20222;-47
2022/01/26 02:57:46;;;;;;;69.20;31.17;;;3.90;99.90;;;;;;5116441;28;20260;-48
2022/01/26 03:00:17;;;;;;;66.45;29.50;;;3.90;99.90;;;;;;5116543;28;20179;-45
2022/01/26 03:05:16;;;;;;;63.25;28.35;;;3.90;99.90;;;;;;5116426;28;20169;-48
2022/01/26 03:07:50;;;;;;;64.38;29.15;;;3.90;99.90;;;;;;5116372;28;20179;-48
2022/01/26 03:10:35;;;;;;;62.03;29.25;;;3.90;99.90;;;;;;5116494;28;20168;-49
2022/01/26 03:13:15;;;;;;;62.40;27.08;;;3.90;99.90;;;;;;5115861;28;20228;-45
2022/01/26 03:15:47;;;;;;;65.50;28.60;;;3.90;99.90;;;;;;5116203;28;20169;-45
2022/01/26 03:18:47;;;;;;;61.33;27.65;;;3.90;99.90;;;;;;5116128;28;20172;-48
2022/01/26 03:21:14;;;;;;;67.78;30.05;;;3.90;99.90;;;;;;5115643;28;20177;-49
2022/01/26 03:32:37;;;;;;;74.05;31.23;;;3.90;99.90;;;;;;5115906;28;20237;-52
2022/01/26 03:34:21;;;;;;;64.60;27.98;;;3.90;99.90;;;;;;5114940;28;20221;-49
2022/01/26 03:36:51;;;;;;;69.75;29.30;;;3.90;99.90;;;;;;5115850;28;20178;-45
2022/01/26 03:39:19;;;;;;;68.28;28.50;;;3.80;99.90;;;;;;5115776;28;20172;-47
2022/01/26 03:41:49;;;;;;;69.03;30.67;;;3.90;99.90;;;;;;5115423;28;20715;-49
2022/01/26 03:44:16;;;;;;;74.88;32.72;;;3.80;99.90;;;;;;5115613;28;20284;-48
2022/01/26 03:46:43;;;;;;;67.05;30.83;;;3.80;99.90;;;;;;5115441;28;20164;-49
2022/01/26 03:49:10;;;;;;;73.80;31.08;;;3.80;99.90;;;;;;5115337;28;20222;-49
2022/01/26 03:51:36;;;;;;;62.00;29.88;;;3.70;99.90;;;;;;5115357;28;20257;-46
2022/01/26 03:54:03;;;;;;;71.55;30.38;;;3.70;99.90;;;;;;5115333;28;20206;-45
2022/01/26 03:56:28;;;;;;;73.00;31.65;;;3.70;99.90;;;;;;5115581;28;20527;-47
2022/01/26 03:58:54;;;;;;;68.10;29.13;;;3.70;99.90;;;;;;5114541;28;20169;-50
2022/01/26 04:01:20;;;;;;;74.32;32.28;;;3.70;99.90;;;;;;5114900;28;20167;-49
2022/01/26 04:03:46;;;;;;;77.00;31.55;;;3.70;99.90;;;;;;5114939;28;20211;-49
2022/01/26 04:06:11;;;;;;;78.15;31.65;;;3.70;99.90;;;;;;5115015;28;20161;-49
2022/01/26 04:08:40;;;;;;;72.18;31.23;;;3.70;99.90;;;;;;5096583;28;20545;-49
2022/01/26 04:13:50;;;;;;;74.72;31.85;;;3.80;99.90;;;;;;5115152;28;20175;-51
2022/01/26 04:16:17;;;;;;;73.63;32.15;;;3.70;99.90;;;;;;5114770;28;20168;-48
2022/01/26 04:18:42;;;;;;;68.63;30.83;;;3.70;99.90;;;;;;5114961;28;20187;-48
2022/01/26 04:26:42;;;;;;;75.80;29.48;;;3.70;99.90;;;;;;5114880;28;20165;-47
2022/01/26 04:29:13;;;;;;;70.50;31.40;;;3.70;99.90;;;;;;5114857;28;20164;-49
2022/01/26 04:31:39;;;;;;;69.45;29.75;;;3.70;99.90;;;;;;5114534;28;20168;-52
2022/01/26 04:34:05;;;;;;;73.35;32.53;;;3.70;99.90;;;;;;5114463;28;20165;-45
2022/01/26 04:36:40;;;;;;;81.13;32.33;;;3.70;99.90;;;;;;5114968;28;20180;-45
2022/01/26 04:39:10;;;;;;;81.15;32.35;;;3.70;99.90;;;;;;5114673;28;20172;-45
2022/01/26 04:41:42;;;;;;;70.70;30.48;;;3.70;99.90;;;;;;5114312;28;20161;-46
2022/01/26 04:44:21;;;;;;;78.57;30.70;;;3.70;99.90;;;;;;5114410;28;20204;-45
2022/01/26 04:46:47;;;;;;;78.78;33.45;;;3.70;99.90;;;;;;5114415;28;20164;-45
2022/01/26 04:49:13;;;;;;;82.22;31.77;;;3.70;99.90;;;;;;5114419;28;20190;-45
2022/01/26 04:51:39;;;;;;;74.53;30.05;;;3.70;99.90;;;;;;5114200;28;20703;-47
2022/01/26 04:54:04;;;;;;;68.93;28.55;;;3.70;99.90;;;;;;5114304;28;20173;-46
2022/01/26 04:56:30;;;;;;;85.00;33.40;;;3.60;99.90;;;;;;5114324;28;20229;-46
2022/01/26 04:58:56;;;;;;;74.40;31.85;;;3.60;99.90;;;;;;5114011;28;20164;-46
2022/01/26 05:01:22;;;;;;;78.05;30.23;;;3.60;99.90;;;;;;5113949;28;20165;-45
2022/01/26 05:03:47;;;;;;;80.93;30.13;;;3.60;99.90;;;;;;5113794;28;20689;-45
2022/01/26 05:06:13;;;;;;;79.47;33.38;;;3.50;99.90;;;;;;5114139;28;20173;-45
2022/01/26 05:08:38;;;;;;;86.22;34.65;;;3.50;99.90;;;;;;5113763;28;20192;-45
2022/01/26 05:11:06;;;;;;;85.55;33.47;;;3.50;99.90;;;;;;5113581;28;20173;-45
2022/01/26 05:13:31;;;;;;;81.50;32.75;;;3.60;99.90;;;;;;5113786;28;20184;-48
2022/01/26 05:15:57;;;;;;;70.90;25.98;;;3.50;99.90;;;;;;5113922;28;20537;-49
2022/01/26 05:18:24;;;;;;;82.68;33.30;;;3.40;99.90;;;;;;5113536;28;20156;-46
2022/01/26 05:20:49;;;;;;;76.13;30.33;;;3.40;99.90;;;;;;5113763;28;20165;-46
2022/01/26 05:23:15;;;;;;;78.10;30.42;;;3.40;99.90;;;;;;5113465;28;20200;-53
2022/01/26 05:25:41;;;;;;;76.25;30.95;;;3.30;99.90;;;;;;5113422;28;20647;-48
2022/01/26 05:28:06;;;;;;;84.13;34.67;;;3.30;99.90;;;;;;5113622;28;20172;-46
2022/01/26 05:30:32;;;;;;;88.50;36.72;;;3.30;99.90;;;;;;5095014;28;20180;-47
2022/01/26 05:32:57;;;;;;;66.63;28.35;;;3.30;99.90;;;;;;5113581;28;20165;-47
2022/01/26 05:35:23;;;;;;;87.55;35.35;;;3.30;99.90;;;;;;5113248;28;20168;-49
2022/01/26 05:37:48;;;;;;;72.55;29.83;;;3.30;99.90;;;;;;5113157;28;20164;-47
2022/01/26 05:40:15;;;;;;;82.05;33.70;;;3.30;99.90;;;;;;5113441;28;20619;-45
2022/01/26 05:42:41;;;;;;;95.45;34.80;;;3.30;99.90;;;;;;5113065;28;20224;-47
2022/01/26 05:45:17;;;;;;;91.55;34.35;;;3.30;99.90;;;;;;5113360;28;20512;-48
2022/01/26 05:47:43;;;;;;;83.50;31.75;;;3.30;99.90;;;;;;5113007;28;20539;-46
2022/01/26 05:50:09;;;;;;;91.10;30.05;;;3.30;99.90;;;;;;5112997;28;20160;-49
2022/01/26 05:52:34;;;;;;;85.53;31.35;;;3.20;99.90;;;;;;5112968;28;20243;-46
2022/01/26 05:55:00;;;;;;;81.22;28.98;;;3.20;99.90;;;;;;5113147;28;20723;-47
2022/01/26 05:57:25;;;;;;;74.00;29.20;;;3.20;99.90;;;;;;5112666;28;20647;-48
2022/01/26 05:59:53;;;;;;;79.80;31.85;;;3.20;99.90;;;;;;5112876;28;20663;-47
2022/01/26 06:02:19;;;;;;;71.78;29.75;;;3.20;99.90;;;;;;5113054;28;20172;-52
2022/01/26 06:04:44;;;;;;;84.38;34.10;;;3.30;99.90;;;;;;5112711;28;20200;-53
2022/01/26 06:07:10;;;;;;;82.45;34.38;;;3.30;99.90;;;;;;5112799;28;20200;-51
2022/01/26 06:09:35;;;;;;;87.18;32.92;;;3.30;99.90;;;;;;5112747;28;20165;-51
2022/01/26 06:12:01;;;;;;;82.00;32.67;;;3.30;99.90;;;;;;5112781;28;20216;-52
2022/01/26 06:14:26;;;;;;;97.07;35.17;;;3.30;99.90;;;;;;5112871;28;20160;-48
2022/01/26 06:16:52;;;;;;;95.38;34.78;;;3.40;99.90;;;;;;5112597;28;20640;-52
2022/01/26 06:19:17;;;;;;;88.47;32.92;;;3.30;99.90;;;;;;5094595;28;20255;-50
2022/01/26 06:21:43;;;;;;;91.43;34.72;;;3.30;99.90;;;;;;5112497;28;20168;-51
2022/01/26 06:24:09;;;;;;;92.95;32.85;;;3.30;99.90;;;;;;5112081;28;20204;-48
2022/01/26 06:26:34;;;;;;;94.60;34.83;;;3.30;99.90;;;;;;5112304;28;20243;-45
2022/01/26 06:29:00;;;;;;;91.00;34.72;;;3.30;99.90;;;;;;5112189;28;20164;-46
2022/01/26 06:31:27;;;;;;;93.28;33.63;;;3.30;99.90;;;;;;5112257;28;20210;-56
2022/01/26 06:33:53;;;;;;;91.35;33.38;;;3.20;99.90;;;;;;5112243;28;20631;-46
2022/01/26 06:36:19;;;;;;;70.70;26.92;;;3.30;99.90;;;;;;5112317;28;20221;-46
2022/01/26 06:38:46;;;;;;;79.78;32.83;;;3.20;99.90;;;;;;5112612;28;20164;-46
2022/01/26 06:41:13;;;;;;;94.68;32.97;;;3.20;99.90;;;;;;5112412;28;20176;-47
2022/01/26 06:43:49;;;;;;;87.50;33.58;;;3.20;99.90;;;;;;5112166;28;20209;-46
2022/01/26 06:46:23;;;;;;;83.82;32.60;;;3.30;99.90;;;;;;5112548;28;20172;-46
2022/01/26 06:49:28;;;;;;;92.88;35.17;;;3.20;99.90;;;;;;5112376;28;20175;-48
2022/01/26 06:51:43;;;;;;;83.55;33.25;;;3.20;99.90;;;;;;5112034;28;20272;-47
2022/01/26 06:54:08;;;;;;;92.57;34.28;;;3.20;99.90;;;;;;5112177;28;20204;-47
2022/01/26 06:56:34;;;;;;;86.50;32.42;;;3.20;99.90;;;;;;5112051;28;20612;-46
2022/01/26 06:58:59;;;;;;;90.20;35.05;;;3.20;99.90;;;;;;5112482;28;20172;-46
2022/01/26 07:01:25;;;;;;;93.50;33.95;;;3.20;99.90;;;;;;5112375;28;20165;-51
2022/01/26 07:03:50;;;;;;;94.22;36.40;;;3.10;99.90;;;;;;5112183;28;20626;-48
2022/01/26 07:06:16;;;;;;;104.80;35.78;;;3.10;99.90;;;;;;5112034;28;20169;-48
2022/01/26 07:08:42;;;;;;;95.00;34.75;;;3.10;99.90;;;;;;5112098;28;20169;-46
2022/01/26 07:11:07;;;;;;;102.68;36.75;;;3.10;99.90;;;;;;5111977;28;20157;-46
2022/01/26 07:13:33;;;;;;;81.60;30.73;;;3.20;99.90;;;;;;5112050;28;20185;-47
2022/01/26 07:21:27;;;;;;;104.25;35.90;;;3.10;99.90;;;;;;5112521;28;20642;-46
2022/01/26 07:23:58;;;;;;;99.38;36.08;;;3.20;99.90;;;;;;5112122;28;20208;-46
2022/01/26 07:26:28;;;;;;;94.35;35.92;;;3.20;99.90;;;;;;5112147;28;20176;-46
2022/01/26 07:28:58;;;;;;;84.13;32.15;;;3.20;99.90;;;;;;5111835;28;20535;-45
2022/01/26 07:31:24;;;;;;;88.97;32.97;;;3.20;99.90;;;;;;5112144;28;20164;-46
2022/01/26 07:33:57;;;;;;;89.55;34.22;;;3.20;99.90;;;;;;5111817;28;20172;-47
2022/01/26 07:36:24;;;;;;;99.13;35.63;;;3.20;99.90;;;;;;5115580;28;20173;-54
2022/01/26 07:38:51;;;;;;;95.47;34.40;;;3.20;99.90;;;;;;5115791;28;20175;-45
2022/01/26 07:41:17;;;;;;;100.85;35.97;;;3.30;99.90;;;;;;5115421;28;20259;-47
2022/01/26 07:43:43;;;;;;;97.60;34.88;;;3.30;99.90;;;;;;5115306;28;20212;-46
2022/01/26 07:46:09;;;;;;;97.57;36.13;;;3.30;99.90;;;;;;5115428;28;20632;-45
2022/01/26 07:48:35;;;;;;;98.70;35.42;;;3.30;99.90;;;;;;5097576;28;20239;-46
2022/01/26 07:51:01;;;;;;;95.28;34.38;;;3.30;99.90;;;;;;5115874;28;20172;-46
2022/01/26 07:53:26;;;;;;;105.50;36.25;;;3.20;99.90;;;;;;5115809;28;20169;-46
2022/01/26 07:55:52;;;;;;;95.03;35.15;;;3.40;99.90;;;;;;5115267;28;20173;-46
2022/01/26 07:58:19;;;;;;;102.88;37.63;;;3.30;99.90;;;;;;5115252;28;20172;-52
2022/01/26 08:00:45;;;;;;;104.07;39.85;;;3.40;99.90;;;;;;5115079;28;20662;-47
2022/01/26 08:03:11;;;;;;;114.32;41.55;;;3.50;99.90;;;;;;5115278;28;20208;-47
2022/01/26 08:05:37;;;;;;;97.90;37.25;;;3.60;99.90;;;;;;5115096;28;20156;-46
2022/01/26 08:08:02;;;;;;;102.47;39.65;;;3.50;99.90;;;;;;5115051;28;20160;-55
2022/01/26 08:10:28;;;;;;;109.90;39.45;;;3.50;99.90;;;;;;5115146;28;20173;-45
2022/01/26 08:12:54;;;;;;;100.82;36.15;;;3.60;99.90;;;;;;5114687;28;20216;-47
2022/01/26 08:15:19;;;;;;;97.22;37.05;;;3.60;99.90;;;;;;5115083;28;20225;-46
2022/01/26 08:17:45;;;;;;;96.22;37.22;;;3.60;99.90;;;;;;5114753;28;20165;-47
2022/01/26 08:20:11;;;;;;;101.43;37.10;;;3.70;99.90;;;;;;5114809;28;20164;-48
2022/01/26 08:22:37;;;;;;;102.80;36.03;;;3.60;99.90;;;;;;5114660;28;20199;-48
2022/01/26 08:25:03;;;;;;;98.75;36.53;;;3.60;99.90;;;;;;5114848;28;20198;-45
2022/01/26 08:27:36;;;;;;;88.82;34.90;;;3.60;99.90;;;;;;5111610;28;20168;-43
2022/01/26 08:30:08;;;;;;;83.32;32.80;;;3.70;99.90;;;;;;5123886;27;20683;-48
2022/01/26 08:32:34;;;;;;;99.63;36.40;;;3.70;99.90;;;;;;5134163;27;20176;-42
2022/01/26 08:34:59;;;;;;;91.05;37.40;;;3.70;99.90;;;;;;5134123;27;20293;-46
2022/01/26 08:37:25;;;;;;;87.18;32.17;;;3.70;99.90;;;;;;5133640;27;20164;-42
2022/01/26 08:39:51;;;;;;;83.13;35.05;;;3.80;99.90;;;;;;5133966;27;20642;-44
2022/01/26 08:42:16;;;;;;;91.63;35.05;;;3.80;99.90;;;;;;5133526;27;20168;-43
2022/01/26 08:44:42;;;;;;;96.90;34.50;;;3.80;99.90;;;;;;5133654;27;20702;-43
2022/01/26 08:47:07;;;;;;;99.82;36.92;;;3.70;99.90;;;;;;5133147;27;20156;-47
2022/01/26 08:49:33;;;;;;;104.22;38.40;;;3.70;99.90;;;;;;5133361;27;20248;-46
2022/01/26 08:52:00;;;;;;;95.97;36.83;;;3.60;99.90;;;;;;5134023;27;20168;-47
2022/01/26 08:54:26;;;;;;;106.53;39.30;;;3.70;99.90;;;;;;5133311;27;20574;-47
2022/01/26 08:56:53;;;;;;;98.18;35.38;;;3.70;99.90;;;;;;5133252;27;20176;-48
2022/01/26 08:59:21;;;;;;;89.63;34.95;;;3.80;99.90;;;;;;5133367;27;20164;-48
2022/01/26 09:01:47;;;;;;;91.65;36.00;;;3.90;99.90;;;;;;5133173;27;20179;-46
2022/01/26 09:04:13;;;;;;;92.50;34.30;;;3.90;99.90;;;;;;5133354;27;20207;-48
2022/01/26 09:06:50;;;;;;;96.40;36.70;;;3.90;99.90;;;;;;5133172;27;20164;-47
2022/01/26 09:09:20;;;;;;;104.70;37.38;;;3.90;99.90;;;;;;5133173;27;20671;-44
2022/01/26 09:11:48;;;;;;;98.63;36.25;;;3.90;99.90;;;;;;5132978;27;20222;-48
2022/01/26 09:14:18;;;;;;;97.88;36.13;;;3.90;99.90;;;;;;5132847;27;20541;-46
2022/01/26 09:16:45;;;;;;;97.78;34.78;;;3.90;99.90;;;;;;5132961;27;20243;-46
2022/01/26 09:19:25;;;;;;;108.88;35.63;;;3.80;99.90;;;;;;5132871;27;20534;-45
2022/01/26 09:21:50;;;;;;;95.75;34.55;;;3.90;99.90;;;;;;5133196;27;20243;-46
2022/01/26 09:24:16;;;;;;;95.78;34.15;;;3.80;99.90;;;;;;5132626;27;20286;-47
2022/01/26 09:26:41;;;;;;;108.95;37.00;;;3.70;99.90;;;;;;5132763;27;20542;-48
2022/01/26 09:29:07;;;;;;;100.53;35.95;;;3.70;99.90;;;;;;5132587;27;20627;-45
2022/01/26 09:31:33;;;;;;;90.72;35.42;;;3.60;99.90;;;;;;5132487;27;20176;-44
2022/01/26 09:33:58;;;;;;;110.03;38.78;;;3.70;99.90;;;;;;5132793;27;20219;-44
2022/01/26 09:36:24;;;;;;;92.20;33.53;;;3.60;99.90;;;;;;5132565;27;20164;-45
2022/01/26 09:38:50;;;;;;;104.07;35.75;;;3.60;99.90;;;;;;5132507;27;20199;-43
2022/01/26 09:41:16;;;;;;;105.03;34.33;;;3.60;99.90;;;;;;5132133;27;20638;-44
2022/01/26 09:43:44;;;;;;;95.18;34.00;;;3.60;99.90;;;;;;5132722;27;20251;-44
2022/01/26 09:46:13;;;;;;;97.93;33.65;;;3.50;99.90;;;;;;5132492;27;20632;-46
2022/01/26 09:48:39;;;;;;;102.43;32.78;;;3.60;99.90;;;;;;5132594;27;20172;-44
2022/01/26 09:51:12;;;;;;;91.85;28.70;;;3.50;99.90;;;;;;5132106;27;20222;-44
2022/01/26 09:53:37;;;;;;;94.82;31.33;;;3.40;99.90;;;;;;5132358;27;20167;-45
2022/01/26 09:56:03;;;;;;;101.97;33.70;;;3.40;99.90;;;;;;5132353;27;20623;-44
2022/01/26 09:58:29;;;;;;;104.90;35.75;;;3.40;99.90;;;;;;5131702;27;20313;-44
2022/01/26 10:00:59;;;;;;;108.60;32.63;;;3.50;99.90;;;;;;5132253;27;20170;-45
2022/01/26 10:03:32;;;;;;;99.28;31.50;;;3.40;99.90;;;;;;5132155;27;20200;-44
2022/01/26 10:05:57;;;;;;;113.00;34.22;;;3.40;99.90;;;;;;5132298;27;20172;-44
2022/01/26 10:08:51;;;;;;;96.10;32.17;;;3.40;99.90;;;;;;5131904;27;20260;-44
2022/01/26 10:17:14;;;;;;;97.65;28.88;;;3.30;99.90;;;;;;5111712;28;20246;-47
2022/01/26 10:19:19;;;;;;;105.68;34.45;;;3.30;99.90;;;;;;5111046;28;20184;-48
2022/01/26 10:21:50;;;;;;;104.18;34.85;;;3.40;99.90;;;;;;5111356;28;20252;-45
2022/01/26 10:24:18;;;;;;;109.72;32.22;;;3.40;99.90;;;;;;5111428;28;20295;-47
2022/01/26 10:26:49;;;;;;;120.50;36.45;;;3.40;99.90;;;;;;5111584;28;20172;-44
2022/01/26 10:29:15;;;;;;;112.28;38.17;;;3.50;99.90;;;;;;5111008;28;20529;-47
2022/01/26 10:31:41;;;;;;;111.18;35.70;;;3.50;99.90;;;;;;5111168;28;20172;-45
2022/01/26 10:34:24;;;;;;;103.82;35.35;;;3.50;99.90;;;;;;5111205;28;20160;-46
2022/01/26 10:37:00;;;;;;;111.55;34.70;;;3.60;99.90;;;;;;5110065;28;20592;-45
2022/01/26 10:39:36;;;;;;;100.57;33.25;;;3.60;99.90;;;;;;5111218;28;20172;-47
2022/01/26 10:42:06;;;;;;;99.22;35.35;;;3.60;99.90;;;;;;5111447;28;20247;-46
2022/01/26 10:44:50;;;;;;;108.28;34.22;;;3.60;99.90;;;;;;5110763;28;20200;-45
2022/01/26 10:47:26;;;;;;;94.38;32.45;;;3.50;99.90;;;;;;5111404;28;20180;-47
2022/01/26 10:52:32;;;;;;;101.50;33.28;;;3.50;99.90;;;;;;5111162;28;20675;-45
2022/01/26 10:54:58;;;;;;;108.40;33.00;;;3.60;99.90;;;;;;5111676;28;20561;-44
2022/01/26 10:57:25;;;;;;;97.45;29.98;;;3.50;99.90;;;;;;5111203;28;20171;-49
2022/01/26 10:59:51;;;;;;;104.22;32.25;;;3.60;99.90;;;;;;5110975;28;20660;-46
2022/01/26 11:02:26;;;;;;;98.32;33.13;;;3.60;99.90;;;;;;5110590;28;20175;-46
2022/01/26 11:04:52;;;;;;;94.22;31.67;;;3.70;99.90;;;;;;5110535;28;20203;-51
2022/01/26 11:07:18;;;;;;;99.70;29.48;;;3.60;99.90;;;;;;5110936;28;20169;-46
2022/01/26 11:09:49;;;;;;;95.65;32.72;;;3.60;99.90;;;;;;5112753;28;20208;-45
2022/01/26 11:12:28;;;;;;;90.88;28.95;;;3.60;99.90;;;;;;5114698;28;20227;-45
2022/01/26 11:15:05;;;;;;;96.50;28.83;;;3.60;99.90;;;;;;5114646;28;20160;-44
2022/01/26 11:17:42;;;;;;;75.28;26.40;;;3.70;99.90;;;;;;5115325;28;20164;-45
2022/01/26 11:20:19;;;;;;;79.68;27.10;;;3.60;99.90;;;;;;5115100;28;20200;-46
2022/01/26 11:22:53;;;;;;;71.00;25.10;;;3.60;99.90;;;;;;5114661;28;20156;-46
2022/01/26 11:25:20;;;;;;;75.10;28.30;;;3.70;99.90;;;;;;5114906;28;20200;-46
2022/01/26 11:27:46;;;;;;;76.05;26.52;;;3.80;99.90;;;;;;5114626;28;20169;-45
2022/01/26 11:30:21;;;;;;;61.78;22.58;;;3.60;99.90;;;;;;5114619;28;20168;-45
2022/01/26 11:33:14;;;;;;;61.63;24.00;;;3.60;99.90;;;;;;5114478;28;20508;-45
2022/01/26 11:35:46;;;;;;;73.93;26.40;;;3.60;99.90;;;;;;5114440;28;20169;-45
2022/01/26 11:46:51;;;;;;;65.07;22.80;;;3.60;99.90;;;;;;5114332;28;20172;-47
2022/01/26 11:49:33;;;;;;;56.00;20.75;;;3.80;99.90;;;;;;5114258;28;20197;-44
2022/01/26 11:51:59;;;;;;;56.30;21.38;;;3.60;99.90;;;;;;5114225;28;20157;-46
2022/01/26 11:54:28;;;;;;;53.08;20.33;;;3.60;99.90;;;;;;5114064;28;20658;-45
2022/01/26 11:57:08;;;;;;;56.78;22.15;;;3.50;99.90;;;;;;5113948;28;20529;-46
2022/01/26 11:59:36;;;;;;;56.03;20.30;;;3.60;99.90;;;;;;5113953;28;20571;-46
2022/01/26 12:02:09;;;;;;;54.63;22.05;;;5.00;99.90;;;;;;5113867;28;20157;-48
2022/01/26 12:04:37;;;;;;;62.80;23.30;;;3.60;99.90;;;;;;5113030;28;20686;-46
2022/01/26 12:07:10;;;;;;;56.60;21.52;;;3.60;99.90;;;;;;5113486;28;20165;-45
2022/01/26 12:09:39;;;;;;;57.80;23.15;;;3.60;99.90;;;;;;5113594;28;20171;-49
2022/01/26 12:12:05;;;;;;;56.85;23.75;;;3.50;99.90;;;;;;5113545;28;20220;-46
2022/01/26 12:14:33;;;;;;;64.05;25.13;;;3.60;99.90;;;;;;5113853;28;20534;-46
2022/01/26 12:17:03;;;;;;;57.85;24.98;;;3.60;99.90;;;;;;5113949;28;20244;-44
2022/01/26 12:19:48;;;;;;;55.55;22.15;;;3.60;99.90;;;;;;5113332;28;20198;-45
2022/01/26 12:36:23;;;;;;;79.40;29.38;;;3.60;99.90;;;;;;5113677;28;20169;-45
2022/01/26 12:38:57;;;;;;;62.97;23.85;;;3.60;99.90;;;;;;5113397;28;20243;-46
2022/01/26 12:41:34;;;;;;;61.40;24.55;;;3.70;99.90;;;;;;5113234;28;20685;-47
2022/01/26 12:44:08;;;;;;;70.47;26.95;;;3.70;99.90;;;;;;5113130;28;20203;-45
2022/01/26 12:46:35;;;;;;;70.82;25.52;;;3.60;99.90;;;;;;5112939;28;20169;-45
2022/01/26 12:49:10;;;;;;;65.47;23.52;;;3.70;99.90;;;;;;5113457;28;20194;-47
2022/01/26 12:51:43;;;;;;;58.90;24.65;;;3.60;99.90;;;;;;5112946;28;20254;-47
2022/01/26 12:54:09;;;;;;;64.97;25.20;;;3.70;99.90;;;;;;5113273;28;20273;-45
2022/01/26 12:56:35;;;;;;;72.07;27.92;;;3.60;99.90;;;;;;5112543;28;20640;-48
2022/01/26 12:59:08;;;;;;;79.22;30.70;;;3.70;99.90;;;;;;5113183;28;20196;-46
2022/01/26 13:01:37;;;;;;;70.10;25.17;;;3.70;99.90;;;;;;5112677;28;20161;-46
2022/01/26 13:04:08;;;;;;;68.35;28.17;;;3.60;99.90;;;;;;5112869;28;20204;-45
2022/01/26 13:06:37;;;;;;;65.75;26.88;;;3.60;99.90;;;;;;5112599;28;20173;-46
2022/01/26 13:09:20;;;;;;;62.15;24.65;;;3.70;99.90;;;;;;5112929;28;20580;-45
2022/01/26 13:11:48;;;;;;;64.25;24.67;;;3.70;99.90;;;;;;5112640;28;20224;-45
2022/01/26 13:14:32;;;;;;;69.65;27.40;;;3.70;99.90;;;;;;5112559;28;20595;-45
2022/01/26 13:19:57;;;;;;;70.22;27.08;;;3.70;99.90;;;;;;5112516;28;20164;-47
2022/01/26 13:22:46;;;;;;;70.40;26.55;;;3.70;99.90;;;;;;5112336;28;20172;-46
2022/01/26 13:28:21;;;;;;;62.58;25.30;;;3.70;99.90;;;;;;5112410;28;20168;-45
2022/01/26 13:36:04;;;;;;;74.93;28.85;;;3.70;99.90;;;;;;5112218;28;20168;-46
2022/01/26 13:38:49;;;;;;;74.95;28.38;;;3.70;99.90;;;;;;5112446;28;20213;-46
2022/01/26 13:41:40;;;;;;;65.43;26.60;;;3.70;99.90;;;;;;5111103;28;20169;-46
2022/01/26 13:44:42;;;;;;;84.78;31.25;;;3.70;99.90;;;;;;5112039;28;20239;-45
2022/01/26 13:47:19;;;;;;;70.55;26.00;;;3.70;99.90;;;;;;5111491;28;20178;-46
2022/01/26 13:49:59;;;;;;;66.85;25.08;;;3.60;99.90;;;;;;5111906;28;20225;-45
2022/01/26 13:52:53;;;;;;;75.43;27.27;;;3.70;99.90;;;;;;5111982;28;20160;-47
2022/01/26 14:00:20;;;;;;;66.55;25.90;;;3.80;99.90;;;;;;5111687;28;20676;-45
2022/01/26 14:02:49;;;;;;;53.42;20.30;;;3.70;99.90;;;;;;5111217;28;20225;-45
2022/01/26 14:05:15;;;;;;;57.38;23.63;;;3.60;99.90;;;;;;5110958;28;20161;-45
2022/01/26 14:07:40;;;;;;;68.35;25.60;;;3.60;99.90;;;;;;5111543;28;20183;-44
2022/01/26 14:10:07;;;;;;;60.72;25.70;;;3.70;99.90;;;;;;5111380;28;20181;-46
2022/01/26 14:12:38;;;;;;;62.00;23.98;;;3.70;99.90;;;;;;5110864;28;20272;-45
2022/01/26 14:15:07;;;;;;;70.43;25.52;;;3.80;99.90;;;;;;5111002;28;20608;-46
2022/01/26 14:22:34;;;;;;;69.57;24.25;;;3.70;99.90;;;;;;5111429;28;20665;-49
2022/01/26 14:27:45;;;;;;;57.67;22.02;;;3.70;99.90;;;;;;5111591;28;20161;-47
2022/01/26 14:33:07;;;;;;;63.53;24.60;;;3.70;99.90;;;;;;5111221;28;20290;-47
2022/01/26 15:22:24;;;;;;;43.70;19.13;;;3.50;99.90;;;;;;5113468;28;20240;-50
2022/01/26 15:40:30;;;;;;;46.80;20.98;;;3.70;99.90;;;;;;5114432;28;20179;-47
2022/01/26 15:50:56;;;;;;;52.08;20.77;;;3.60;99.90;;;;;;5113151;28;20221;-45
2022/01/26 15:59:03;;;;;;;41.90;17.42;;;3.50;99.90;;;;;;5114300;28;20699;-45
2022/01/26 16:04:32;;;;;;;52.47;22.73;;;3.60;99.90;;;;;;5113941;28;20614;-47
2022/01/26 16:07:11;;;;;;;59.75;21.55;;;3.60;99.90;;;;;;5114277;28;20173;-46
2022/01/26 16:12:40;;;;;;;52.17;21.52;;;3.50;99.90;;;;;;5075218;28;20239;-47
2022/01/26 16:19:21;;;;;;;63.00;24.05;;;3.60;99.90;;;;;;5113998;28;20215;-47
2022/01/26 16:20:51;;;;;;;54.00;19.08;;;3.60;99.90;;;;;;5113172;28;20204;-46
2022/01/26 17:24:19;;;;;;;60.72;22.10;;;3.50;99.90;;;;;;5112535;28;20175;-48
2022/01/26 17:24:22;;;;;;;49.53;20.80;;;3.50;99.90;;;;;;5112318;28;20749;-48
2022/01/26 18:13:14;;;;;;;45.58;19.77;;;3.40;99.90;;;;;;5111154;28;20223;-46
2022/01/26 18:15:50;;;;;;;42.15;19.80;;;3.40;99.90;;;;;;5111000;28;20255;-48
2022/01/26 18:40:28;;;;;;;43.72;15.30;;;3.40;99.90;;;;;;5111465;28;20645;-48
2022/01/26 18:51:14;;;;;;;46.95;20.17;;;3.40;99.90;;;;;;5008227;28;20187;-49
2022/01/26 18:53:39;;;;;;;48.72;20.10;;;3.40;99.90;;;;;;5068657;28;20188;-45